createdAt,value
2023-02-27T00:01:40.586Z,-2.39
2023-02-27T00:04:07.011Z,-2.39
2023-02-27T00:06:33.431Z,-2.34
2023-02-27T00:09:00.214Z,-2.39
2023-02-27T00:11:27.045Z,-2.45
2023-02-27T00:13:53.733Z,-2.51
2023-02-27T00:16:20.179Z,-2.58
2023-02-27T00:18:46.621Z,-2.57
2023-02-27T00:21:13.009Z,-2.56
2023-02-27T00:23:39.362Z,-2.57
2023-02-27T00:26:05.702Z,-2.55
2023-02-27T00:28:32.079Z,-2.59
2023-02-27T00:30:58.552Z,-2.64
2023-02-27T00:33:25.000Z,-2.68
2023-02-27T00:35:58.888Z,-2.73
2023-02-27T00:38:26.238Z,-2.70
2023-02-27T00:40:52.606Z,-2.73
2023-02-27T00:43:18.999Z,-2.77
2023-02-27T00:45:45.542Z,-2.77
2023-02-27T00:48:11.892Z,-2.77
2023-02-27T00:50:38.586Z,-2.73
2023-02-27T00:53:05.221Z,-2.74
2023-02-27T00:55:31.680Z,-2.80
2023-02-27T00:57:58.074Z,-2.76
2023-02-27T01:00:24.870Z,-2.78
2023-02-27T01:02:51.225Z,-2.77
2023-02-27T01:05:18.166Z,-2.78
2023-02-27T01:07:44.509Z,-2.78
2023-02-27T01:10:11.905Z,-2.80
2023-02-27T01:12:38.793Z,-2.84
2023-02-27T01:15:06.715Z,-2.86
2023-02-27T01:17:33.379Z,-2.87
2023-02-27T01:19:59.776Z,-2.89
2023-02-27T01:22:26.199Z,-2.91
2023-02-27T01:24:52.579Z,-2.93
2023-02-27T01:27:19.040Z,-2.93
2023-02-27T01:29:45.493Z,-2.94
2023-02-27T01:32:11.956Z,-2.94
2023-02-27T01:34:38.360Z,-2.94
2023-02-27T01:37:04.749Z,-2.93
2023-02-27T01:39:32.888Z,-2.95
2023-02-27T01:42:00.932Z,-2.91
2023-02-27T01:44:29.943Z,-2.91
2023-02-27T01:46:57.209Z,-2.97
2023-02-27T01:49:29.065Z,-2.99
2023-02-27T01:52:02.952Z,-2.94
2023-02-27T01:54:32.039Z,-2.94
2023-02-27T01:56:58.603Z,-3.01
2023-02-27T01:59:25.049Z,-3.01
2023-02-27T02:01:52.211Z,-3.04
2023-02-27T02:04:27.782Z,-3.09
2023-02-27T02:06:59.746Z,-3.16
2023-02-27T02:09:27.671Z,-3.14
2023-02-27T02:11:54.990Z,-3.20
2023-02-27T02:14:21.616Z,-3.22
2023-02-27T02:17:07.059Z,-3.24
2023-02-27T02:19:55.316Z,-3.23
2023-02-27T02:22:59.116Z,-3.23
2023-02-27T02:26:03.308Z,-3.27
2023-02-27T02:29:12.733Z,-3.33
2023-02-27T02:32:21.178Z,-3.34
2023-02-27T02:35:17.074Z,-3.32
2023-02-27T02:38:14.505Z,-3.35
2023-02-27T02:41:07.604Z,-3.34
2023-02-27T02:43:58.273Z,-3.39
2023-02-27T02:46:38.920Z,-3.41
2023-02-27T02:49:26.773Z,-3.37
2023-02-27T02:52:02.743Z,-3.42
2023-02-27T02:54:42.014Z,-3.41
2023-02-27T02:57:16.628Z,-3.48
2023-02-27T02:59:56.923Z,-3.45
2023-02-27T03:02:31.131Z,-3.40
2023-02-27T03:05:08.547Z,-3.37
2023-02-27T03:07:44.097Z,-3.26
2023-02-27T03:10:30.478Z,-3.29
2023-02-27T03:13:02.790Z,-3.31
2023-02-27T03:15:36.335Z,-3.32
2023-02-27T03:18:08.523Z,-3.32
2023-02-27T03:20:42.706Z,-3.16
2023-02-27T03:23:14.036Z,-3.19
2023-02-27T03:25:46.050Z,-3.12
2023-02-27T03:28:19.267Z,-3.15
2023-02-27T03:30:53.359Z,-3.03
2023-02-27T03:33:31.718Z,-3.09
2023-02-27T03:36:04.121Z,-3.12
2023-02-27T03:38:34.710Z,-3.04
2023-02-27T03:41:37.522Z,-3.01
2023-02-27T03:44:04.008Z,-3.03
2023-02-27T03:46:30.752Z,-2.99
2023-02-27T03:48:57.150Z,-3.02
2023-02-27T03:51:25.301Z,-3.00
2023-02-27T03:54:06.699Z,-3.05
2023-02-27T03:56:40.690Z,-3.04
2023-02-27T03:59:07.838Z,-3.01
2023-02-27T04:01:34.456Z,-3.04
2023-02-27T04:04:06.990Z,-2.98
2023-02-27T04:06:54.833Z,-3.00
2023-02-27T04:09:33.041Z,-2.97
2023-02-27T04:12:26.788Z,-3.02
2023-02-27T04:15:23.041Z,-3.00
2023-02-27T04:18:15.605Z,-2.99
2023-02-27T04:20:44.823Z,-2.93
2023-02-27T04:23:23.552Z,-2.98
2023-02-27T04:25:53.184Z,-3.01
2023-02-27T04:28:36.158Z,-2.99
2023-02-27T04:31:25.067Z,-2.98
2023-02-27T04:33:56.290Z,-3.01
2023-02-27T04:36:35.800Z,-2.95
2023-02-27T04:39:08.458Z,-2.93
2023-02-27T04:41:43.323Z,-2.93
2023-02-27T04:44:12.419Z,-2.85
2023-02-27T04:46:42.763Z,-2.78
2023-02-27T04:49:21.506Z,-2.76
2023-02-27T04:52:06.584Z,-2.74
2023-02-27T04:54:46.697Z,-2.77
2023-02-27T04:57:20.778Z,-2.79
2023-02-27T04:59:52.546Z,-2.56
2023-02-27T05:02:29.522Z,-2.72
2023-02-27T05:05:00.504Z,-2.75
2023-02-27T05:07:33.563Z,-2.79
2023-02-27T05:10:05.662Z,-2.80
2023-02-27T05:12:38.395Z,-2.81
2023-02-27T05:15:12.107Z,-2.81
2023-02-27T05:17:47.621Z,-2.41
2023-02-27T05:20:15.737Z,-2.44
2023-02-27T05:22:49.492Z,-2.48
2023-02-27T05:25:26.884Z,-2.55
2023-02-27T05:28:17.597Z,-2.67
2023-02-27T05:30:53.026Z,-2.72
2023-02-27T05:33:33.166Z,-2.79
2023-02-27T05:36:02.287Z,-2.80
2023-02-27T05:38:36.855Z,-2.86
2023-02-27T05:41:14.392Z,-2.86
2023-02-27T05:43:50.625Z,-2.80
2023-02-27T05:46:23.996Z,-2.82
2023-02-27T05:48:56.121Z,-2.88
2023-02-27T05:51:28.034Z,-2.87
2023-02-27T05:54:03.024Z,-2.80
2023-02-27T05:56:32.639Z,-2.64
2023-02-27T05:59:06.334Z,-2.65
2023-02-27T06:01:33.398Z,-2.72
2023-02-27T06:03:59.833Z,-2.83
2023-02-27T06:06:26.657Z,-2.76
2023-02-27T06:08:53.484Z,-2.81
2023-02-27T06:11:19.882Z,-2.74
2023-02-27T06:13:46.225Z,-2.54
2023-02-27T06:16:14.525Z,-2.63
2023-02-27T06:18:40.955Z,-2.66
2023-02-27T06:21:07.282Z,-2.71
2023-02-27T06:23:33.662Z,-2.70
2023-02-27T06:26:00.249Z,-2.72
2023-02-27T06:28:26.961Z,-2.66
2023-02-27T06:30:57.194Z,-2.65
2023-02-27T06:33:25.909Z,-2.59
2023-02-27T06:35:52.606Z,-2.55
2023-02-27T06:38:19.021Z,-2.50
2023-02-27T06:40:45.372Z,-2.03
2023-02-27T06:43:11.758Z,-2.17
2023-02-27T06:45:38.219Z,-2.18
2023-02-27T06:48:04.724Z,-2.32
2023-02-27T06:50:31.197Z,-2.33
2023-02-27T06:52:57.555Z,-2.34
2023-02-27T06:55:25.611Z,-2.25
2023-02-27T06:57:52.101Z,-2.25
2023-02-27T07:00:19.028Z,-2.18
2023-02-27T07:02:45.571Z,-2.26
2023-02-27T07:05:12.166Z,-2.23
2023-02-27T07:07:39.270Z,-2.18
2023-02-27T07:10:08.318Z,-2.13
2023-02-27T07:12:34.677Z,-2.09
2023-02-27T07:15:01.207Z,-2.16
2023-02-27T07:17:27.549Z,-2.26
2023-02-27T07:19:54.548Z,-2.24
2023-02-27T07:22:20.963Z,-1.93
2023-02-27T07:24:47.320Z,-1.73
2023-02-27T07:27:13.670Z,-1.86
2023-02-27T07:29:40.214Z,-1.94
2023-02-27T07:32:06.715Z,-2.00
2023-02-27T07:34:33.427Z,-1.98
2023-02-27T07:36:59.803Z,-1.95
2023-02-27T07:39:26.144Z,-1.78
2023-02-27T07:41:52.504Z,-1.88
2023-02-27T07:44:19.226Z,-1.80
2023-02-27T07:46:47.314Z,-1.79
2023-02-27T07:49:14.048Z,-1.81
2023-02-27T07:51:40.409Z,-1.77
2023-02-27T07:54:06.761Z,-1.74
2023-02-27T07:56:33.202Z,-1.78
2023-02-27T07:58:59.581Z,-1.71
2023-02-27T08:01:26.315Z,-1.66
2023-02-27T08:03:52.733Z,-1.74
2023-02-27T08:06:19.131Z,-1.66
2023-02-27T08:08:45.743Z,-1.78
2023-02-27T08:11:12.070Z,-1.66
2023-02-27T08:16:25.279Z,-1.50
2023-02-27T08:18:52.097Z,-1.49
2023-02-27T08:21:18.676Z,-1.51
2023-02-27T08:23:45.014Z,-1.40
2023-02-27T08:26:11.370Z,-1.47
2023-02-27T08:28:38.014Z,-1.47
2023-02-27T08:31:04.589Z,-1.22
2023-02-27T08:33:31.039Z,-1.12
2023-02-27T08:35:57.510Z,-1.27
2023-02-27T08:38:26.048Z,-1.21
2023-02-27T08:40:55.622Z,-1.24
2023-02-27T08:43:23.065Z,-1.24
2023-02-27T08:45:49.979Z,-1.29
2023-02-27T08:48:18.337Z,-1.23
2023-02-27T08:50:46.246Z,-1.14
2023-02-27T08:53:13.045Z,-1.18
2023-02-27T08:55:39.538Z,-1.05
2023-02-27T08:58:06.012Z,-0.99
2023-02-27T09:00:32.838Z,-0.90
2023-02-27T09:03:00.538Z,-1.05
2023-02-27T09:05:27.650Z,-0.95
2023-02-27T09:07:54.060Z,-0.89
2023-02-27T09:10:20.428Z,-0.95
2023-02-27T09:12:48.246Z,-1.04
2023-02-27T09:15:15.266Z,-1.05
2023-02-27T09:17:41.712Z,-0.93
2023-02-27T09:20:09.543Z,-0.65
2023-02-27T09:22:35.952Z,-0.54
2023-02-27T09:25:02.556Z,-0.54
2023-02-27T09:27:28.994Z,-0.53
2023-02-27T09:29:56.356Z,-0.51
2023-02-27T09:32:23.748Z,-0.55
2023-02-27T09:34:50.272Z,-0.51
2023-02-27T09:37:17.132Z,-0.46
2023-02-27T09:39:44.701Z,-0.43
2023-02-27T09:42:20.626Z,-0.29
2023-02-27T09:44:53.813Z,-0.14
2023-02-27T09:47:29.195Z,-0.15
2023-02-27T09:50:02.991Z,-0.12
2023-02-27T09:52:32.226Z,0.03
2023-02-27T09:54:59.016Z,-0.07
2023-02-27T09:57:44.301Z,0.06
2023-02-27T10:00:33.439Z,0.01
2023-02-27T10:03:21.848Z,0.04
2023-02-27T10:06:09.105Z,0.37
2023-02-27T10:08:53.381Z,0.55
2023-02-27T10:11:53.994Z,0.58
2023-02-27T10:14:34.061Z,0.55
2023-02-27T10:17:03.613Z,0.42
2023-02-27T10:19:37.547Z,0.39
2023-02-27T10:22:08.014Z,0.27
2023-02-27T10:24:44.283Z,0.42
2023-02-27T10:27:17.565Z,0.10
2023-02-27T10:29:44.163Z,0.21
2023-02-27T10:32:17.089Z,0.13
2023-02-27T10:34:47.593Z,0.11
2023-02-27T10:37:17.469Z,0.29
2023-02-27T10:39:55.376Z,0.28
2023-02-27T10:42:24.291Z,0.11
2023-02-27T10:44:53.568Z,0.18
2023-02-27T10:47:23.784Z,0.05
2023-02-27T10:49:50.704Z,0.03
2023-02-27T10:52:17.877Z,0.04
2023-02-27T10:54:46.254Z,-0.16
2023-02-27T10:57:33.468Z,-0.21
2023-02-27T11:00:05.523Z,-0.24
2023-02-27T11:02:48.807Z,-0.06
2023-02-27T11:05:31.227Z,-0.13
2023-02-27T11:08:10.449Z,-0.13
2023-02-27T11:10:36.861Z,-0.02
2023-02-27T11:13:18.446Z,0.03
2023-02-27T11:16:00.352Z,0.08
2023-02-27T11:18:29.328Z,0.12
2023-02-27T11:21:15.525Z,0.14
2023-02-27T11:23:50.865Z,0.10
2023-02-27T11:26:54.092Z,0.27
2023-02-27T11:29:20.928Z,0.34
2023-02-27T11:31:54.040Z,0.55
2023-02-27T11:34:27.645Z,0.59
2023-02-27T11:37:01.313Z,0.56
2023-02-27T11:39:30.613Z,0.55
2023-02-27T11:42:05.294Z,0.65
2023-02-27T11:44:50.100Z,0.60
2023-02-27T11:47:23.195Z,0.62
2023-02-27T11:50:08.867Z,0.77
2023-02-27T11:52:54.044Z,0.71
2023-02-27T11:55:27.798Z,0.72
2023-02-27T11:58:01.102Z,0.75
2023-02-27T12:00:33.156Z,0.91
2023-02-27T12:03:07.370Z,0.89
2023-02-27T12:05:51.545Z,1.06
2023-02-27T12:08:42.157Z,1.05
2023-02-27T12:11:22.609Z,1.08
2023-02-27T12:14:04.099Z,1.04
2023-02-27T12:16:42.264Z,0.84
2023-02-27T12:19:23.855Z,0.88
2023-02-27T12:21:56.575Z,0.91
2023-02-27T12:24:31.977Z,0.85
2023-02-27T12:27:19.026Z,0.83
2023-02-27T12:29:53.551Z,1.03
2023-02-27T12:32:26.005Z,1.25
2023-02-27T12:35:02.020Z,1.30
2023-02-27T12:37:29.813Z,1.38
2023-02-27T12:39:59.808Z,1.42
2023-02-27T12:42:50.316Z,1.46
2023-02-27T12:45:38.729Z,1.29
2023-02-27T12:48:39.405Z,1.21
2023-02-27T12:51:23.654Z,1.15
2023-02-27T12:53:59.961Z,0.99
2023-02-27T12:56:44.315Z,0.87
2023-02-27T12:59:48.819Z,0.91
2023-02-27T13:02:44.818Z,1.08
2023-02-27T13:05:38.662Z,1.06
2023-02-27T13:08:18.196Z,1.04
2023-02-27T13:10:56.513Z,1.07
2023-02-27T13:13:32.077Z,1.14
2023-02-27T13:16:07.180Z,1.11
2023-02-27T13:18:56.943Z,0.98
2023-02-27T13:21:36.590Z,0.99
2023-02-27T13:24:30.045Z,1.19
2023-02-27T13:27:03.257Z,1.22
2023-02-27T13:29:47.585Z,1.29
2023-02-27T13:32:44.158Z,1.39
2023-02-27T13:35:27.935Z,1.52
2023-02-27T13:38:07.541Z,1.62
2023-02-27T13:40:38.252Z,1.74
2023-02-27T13:43:27.500Z,1.73
2023-02-27T13:45:57.572Z,1.55
2023-02-27T13:48:39.835Z,1.61
2023-02-27T13:51:12.412Z,1.50
2023-02-27T13:53:39.026Z,1.38
2023-02-27T13:56:23.433Z,1.32
2023-02-27T13:58:53.530Z,1.28
2023-02-27T14:01:29.639Z,1.30
2023-02-27T14:04:03.437Z,1.35
2023-02-27T14:06:30.764Z,1.45
2023-02-27T14:09:12.794Z,1.56
2023-02-27T14:11:41.266Z,1.63
2023-02-27T14:14:20.797Z,1.79
2023-02-27T14:16:48.326Z,1.99
2023-02-27T14:19:17.938Z,2.11
2023-02-27T14:22:30.529Z,2.21
2023-02-27T14:25:21.974Z,2.32
2023-02-27T14:27:54.723Z,2.26
2023-02-27T14:30:33.800Z,2.23
2023-02-27T14:33:08.204Z,2.30
2023-02-27T14:35:35.921Z,2.66
2023-02-27T14:38:11.828Z,2.64
2023-02-27T14:40:48.748Z,2.68
2023-02-27T14:43:29.208Z,2.60
2023-02-27T14:45:56.112Z,2.50
2023-02-27T14:48:28.695Z,2.44
2023-02-27T14:50:57.953Z,2.31
2023-02-27T14:53:28.004Z,2.26
2023-02-27T14:55:57.054Z,2.14
2023-02-27T14:58:24.433Z,2.12
2023-02-27T15:01:09.887Z,2.05
2023-02-27T15:03:45.113Z,1.99
2023-02-27T15:06:24.180Z,1.98
2023-02-27T15:08:53.855Z,1.91
2023-02-27T15:11:22.049Z,1.78
2023-02-27T15:13:56.179Z,1.86
2023-02-27T15:16:35.629Z,1.74
2023-02-27T15:19:24.480Z,1.63
2023-02-27T15:22:00.178Z,1.53
2023-02-27T15:24:40.686Z,1.47
2023-02-27T15:27:21.623Z,1.44
2023-02-27T15:29:57.006Z,1.36
2023-02-27T15:32:39.580Z,1.28
2023-02-27T15:35:12.778Z,1.20
2023-02-27T15:37:50.641Z,1.12
2023-02-27T15:40:21.174Z,0.94
2023-02-27T15:42:48.068Z,0.86
2023-02-27T15:45:21.166Z,0.80
2023-02-27T15:47:48.155Z,0.73
2023-02-27T15:50:17.190Z,0.76
2023-02-27T15:52:51.213Z,0.70
2023-02-27T15:55:26.004Z,0.65
2023-02-27T15:58:02.411Z,0.59
2023-02-27T16:00:31.267Z,0.55
2023-02-27T16:02:59.250Z,0.53
2023-02-27T16:05:34.905Z,0.35
2023-02-27T16:08:05.746Z,0.43
2023-02-27T16:10:40.313Z,0.42
2023-02-27T16:13:33.427Z,0.44
2023-02-27T16:16:21.881Z,0.37
2023-02-27T16:18:50.092Z,0.39
2023-02-27T16:21:22.487Z,0.59
2023-02-27T16:23:49.828Z,0.80
2023-02-27T16:26:36.380Z,0.56
2023-02-27T16:29:17.749Z,0.49
2023-02-27T16:31:56.622Z,0.59
2023-02-27T16:34:45.160Z,0.40
2023-02-27T16:37:27.004Z,0.35
2023-02-27T16:39:54.376Z,0.19
2023-02-27T16:42:21.307Z,0.37
2023-02-27T16:44:49.059Z,0.22
2023-02-27T16:47:15.510Z,0.20
2023-02-27T16:49:44.106Z,0.10
2023-02-27T16:52:11.431Z,0.01
2023-02-27T16:54:37.937Z,-0.04
2023-02-27T16:57:04.311Z,0.03
2023-02-27T16:59:36.209Z,0.36
2023-02-27T17:02:05.554Z,0.30
2023-02-27T17:04:32.246Z,0.17
2023-02-27T17:07:00.299Z,0.18
2023-02-27T17:09:28.133Z,0.22
2023-02-27T17:11:55.384Z,0.09
2023-02-27T17:14:22.779Z,0.25
2023-02-27T17:16:49.512Z,0.11
2023-02-27T17:19:16.369Z,0.08
2023-02-27T17:21:42.898Z,0.03
2023-02-27T17:24:09.323Z,0.02
2023-02-27T17:26:35.943Z,0.00
2023-02-27T17:29:03.159Z,0.07
2023-02-27T17:31:29.937Z,0.07
2023-02-27T17:33:56.481Z,0.04
2023-02-27T17:36:24.069Z,0.03
2023-02-27T17:38:55.756Z,0.05
2023-02-27T17:41:22.280Z,0.03
2023-02-27T17:43:53.767Z,0.20
2023-02-27T17:46:20.251Z,0.20
2023-02-27T17:48:46.747Z,0.19
2023-02-27T17:51:15.438Z,0.23
2023-02-27T17:53:42.585Z,0.15
2023-02-27T17:56:10.011Z,0.11
2023-02-27T17:58:36.480Z,0.07
2023-02-27T18:01:13.656Z,0.09
2023-02-27T18:03:40.956Z,0.12
2023-02-27T18:06:07.567Z,0.10
2023-02-27T18:08:34.239Z,0.09
2023-02-27T18:11:01.327Z,0.03
2023-02-27T18:13:28.187Z,0.06
2023-02-27T18:15:56.106Z,0.03
2023-02-27T18:18:23.724Z,0.04
2023-02-27T18:21:03.749Z,0.03
2023-02-27T18:23:30.400Z,0.18
2023-02-27T18:25:57.941Z,0.19
2023-02-27T18:28:24.543Z,0.39
2023-02-27T18:30:51.291Z,0.55
2023-02-27T18:33:19.519Z,0.23
2023-02-27T18:35:47.151Z,0.17
2023-02-27T18:38:13.884Z,0.09
2023-02-27T18:40:40.366Z,0.06
2023-02-27T18:43:07.596Z,-0.01
2023-02-27T18:45:34.071Z,0.03
2023-02-27T18:48:00.442Z,0.06
2023-02-27T18:50:27.673Z,0.10
2023-02-27T18:52:56.044Z,0.30
2023-02-27T18:55:22.520Z,0.15
2023-02-27T18:57:50.872Z,0.07
2023-02-27T19:00:19.053Z,-0.01
2023-02-27T19:02:45.513Z,0.06
2023-02-27T19:05:14.403Z,0.19
2023-02-27T19:07:41.458Z,0.38
2023-02-27T19:10:09.014Z,0.38
2023-02-27T19:12:35.889Z,0.24
2023-02-27T19:15:03.308Z,0.32
2023-02-27T19:17:29.707Z,0.24
2023-02-27T19:19:56.074Z,0.10
2023-02-27T19:22:22.481Z,0.14
2023-02-27T19:24:49.746Z,0.09
2023-02-27T19:27:17.256Z,0.03
2023-02-27T19:29:43.737Z,-0.02
2023-02-27T19:32:10.212Z,-0.08
2023-02-27T19:34:36.630Z,-0.11
2023-02-27T19:37:03.066Z,-0.11
2023-02-27T19:39:29.450Z,-0.15
2023-02-27T19:41:56.449Z,-0.16
2023-02-27T19:44:23.220Z,-0.20
2023-02-27T19:46:52.099Z,-0.22
2023-02-27T19:49:20.499Z,-0.23
2023-02-27T19:51:47.332Z,-0.25
2023-02-27T19:54:15.520Z,-0.27
2023-02-27T19:56:42.699Z,-0.28
2023-02-27T19:59:11.211Z,-0.31
2023-02-27T20:01:38.935Z,-0.33
2023-02-27T20:04:06.603Z,-0.37
2023-02-27T20:06:41.952Z,-0.38
2023-02-27T20:09:11.429Z,-0.40
2023-02-27T20:11:37.870Z,-0.41
2023-02-27T20:14:04.280Z,-0.43
2023-02-27T20:16:34.411Z,-0.40
2023-02-27T20:19:01.362Z,-0.44
2023-02-27T20:21:28.804Z,-0.39
2023-02-27T20:23:55.922Z,-0.41
2023-02-27T20:26:33.742Z,-0.41
2023-02-27T20:29:06.736Z,-0.43
2023-02-27T20:31:35.402Z,-0.46
2023-02-27T20:34:01.975Z,-0.47
2023-02-27T20:36:28.536Z,-0.47
2023-02-27T20:38:55.473Z,-0.47
2023-02-27T20:41:22.764Z,-0.44
2023-02-27T20:43:49.724Z,-0.46
2023-02-27T20:46:22.626Z,-0.46
2023-02-27T20:48:49.594Z,-0.46
2023-02-27T20:51:19.748Z,-0.47
2023-02-27T20:53:48.349Z,-0.46
2023-02-27T20:56:14.894Z,-0.46
2023-02-27T20:58:41.263Z,-0.47
2023-02-27T21:01:11.571Z,-0.46
2023-02-27T21:03:39.732Z,-0.46
2023-02-27T21:06:08.561Z,-0.43
2023-02-27T21:08:37.213Z,-0.43
2023-02-27T21:11:11.857Z,-0.43
2023-02-27T21:13:38.701Z,-0.43
2023-02-27T21:16:07.406Z,-0.43
2023-02-27T21:18:34.123Z,-0.43
2023-02-27T21:21:05.963Z,-0.43
2023-02-27T21:23:34.332Z,-0.42
2023-02-27T21:26:00.696Z,-0.43
2023-02-27T21:28:27.078Z,-0.42
2023-02-27T21:30:54.672Z,-0.41
2023-02-27T21:33:22.268Z,-0.43
2023-02-27T21:35:49.039Z,-0.42
2023-02-27T21:38:16.364Z,-0.43
2023-02-27T21:40:42.918Z,-0.41
2023-02-27T21:43:09.658Z,-0.43
2023-02-27T21:45:41.450Z,-0.41
2023-02-27T21:48:08.184Z,-0.40
2023-02-27T21:50:35.907Z,-0.43
2023-02-27T21:53:02.235Z,-0.42
2023-02-27T21:55:28.616Z,-0.40
2023-02-27T21:57:55.029Z,-0.33
2023-02-27T22:00:23.122Z,-0.38
2023-02-27T22:02:49.580Z,-0.38
2023-02-27T22:05:15.963Z,-0.38
2023-02-27T22:07:42.322Z,-0.39
2023-02-27T22:10:09.434Z,-0.40
2023-02-27T22:12:35.825Z,-0.39
2023-02-27T22:15:02.380Z,-0.38
2023-02-27T22:17:28.731Z,-0.41
2023-02-27T22:19:55.225Z,-0.41
2023-02-27T22:22:21.615Z,-0.36
2023-02-27T22:24:47.983Z,-0.38
2023-02-27T22:27:14.382Z,-0.37
2023-02-27T22:29:42.262Z,-0.38
2023-02-27T22:32:09.438Z,-0.37
2023-02-27T22:34:35.844Z,-0.38
2023-02-27T22:37:02.526Z,-0.38
2023-02-27T22:39:28.897Z,-0.36
2023-02-27T22:41:56.841Z,-0.39
2023-02-27T22:44:23.482Z,-0.38
2023-02-27T22:46:50.104Z,-0.38
2023-02-27T22:49:22.126Z,-0.38
2023-02-27T22:51:51.042Z,-0.37
2023-02-27T22:54:20.160Z,-0.38
2023-02-27T22:56:49.314Z,-0.37
2023-02-27T22:59:16.648Z,-0.31
2023-02-27T23:01:43.114Z,-0.33
2023-02-27T23:04:11.284Z,-0.36
2023-02-27T23:06:40.048Z,-0.37
2023-02-27T23:09:08.873Z,-0.39
2023-02-27T23:11:35.281Z,-0.41
2023-02-27T23:14:01.791Z,-0.38
2023-02-27T23:16:28.330Z,-0.38
2023-02-27T23:18:57.578Z,-0.39
2023-02-27T23:21:29.499Z,-0.41
2023-02-27T23:23:58.004Z,-0.41
2023-02-27T23:26:28.258Z,-0.39
2023-02-27T23:28:55.748Z,-0.38
2023-02-27T23:31:22.585Z,-0.38
2023-02-27T23:33:48.983Z,-0.38
2023-02-27T23:36:15.440Z,-0.36
2023-02-27T23:38:42.949Z,-0.38
2023-02-27T23:41:09.919Z,-0.37
2023-02-27T23:43:36.502Z,-0.38
2023-02-27T23:46:12.549Z,-0.38
2023-02-27T23:48:39.662Z,-0.38
2023-02-27T23:51:07.834Z,-0.39
2023-02-27T23:53:35.468Z,-0.37
2023-02-27T23:56:12.409Z,-0.37
2023-02-27T23:58:38.779Z,-0.37
